Claremont, Virginia
Current Conditions -  °F | °C
As of 6:55 PM on Saturday 25 Oct 2014 (Local Time) from KJGG Reporting Station
Clear Clear  
Wind Chill: 64°   Ceiling: Unl
Heat Index: 64°   Visibility: 10mi
Dew Point: 46°   Wind: 5mph
Humidity: 52%   Direction: 230°SW
Pressure: 29.85"   Gusts: NA
Location:  37.23°N, 76.96°W
Report Text: KJGG 252255Z AUTO 23004KT 10SM CLR 18/08 A2985 RMK AO1
Loading
Personal Weather Stations






























Interactive Weather Map
Tropical Storm Tracking
New forecast layout! Learn more

10-Day Weather Forecast

Advertisements
Track Severe Weather on mobile